Time;durP1;ratioP1;P1;durP2;ratioP2;P2;SDS_P1;SDS_P2;PMS_P1;PMS_P2;Temp;Humidity;BMP_temperature;BMP_pressure;BME280_temperature;BME280_humidity;BME280_pressure;Samples;Min_cycle;Max_cycle;Signal;HPM_P1;HPM_P2
2022/08/30 00:01:11;;;;;;;2.03;1.50;;;14.40;99.90;;;;;;4862572;29;20406;-55
2022/08/30 00:03:41;;;;;;;2.67;1.70;;;14.50;99.90;;;;;;4862299;29;20261;-51
2022/08/30 00:06:08;;;;;;;2.27;1.77;;;14.50;99.90;;;;;;4862555;29;20497;-54
2022/08/30 00:08:35;;;;;;;5.33;1.67;;;14.50;99.90;;;;;;4862228;29;20434;-55
2022/08/30 00:11:03;;;;;;;2.43;1.90;;;14.60;99.90;;;;;;4861971;29;20885;-54
2022/08/30 00:13:29;;;;;;;4.00;1.60;;;14.60;99.90;;;;;;4862491;29;20528;-54
2022/08/30 00:15:55;;;;;;;2.27;1.90;;;14.60;99.90;;;;;;4862194;29;20740;-53
2022/08/30 00:18:21;;;;;;;2.47;1.97;;;14.60;99.90;;;;;;4862069;29;20406;-52
2022/08/30 00:20:49;;;;;;;3.60;1.70;;;14.50;99.90;;;;;;4862002;29;20215;-54
2022/08/30 00:23:16;;;;;;;2.60;1.80;;;14.50;99.90;;;;;;4861825;29;20433;-55
2022/08/30 00:25:42;;;;;;;1.80;1.50;;;14.50;99.90;;;;;;4862094;29;20418;-55
2022/08/30 00:28:08;;;;;;;2.20;1.60;;;14.50;99.90;;;;;;4861985;29;20466;-54
2022/08/30 00:30:35;;;;;;;2.50;1.70;;;14.50;99.90;;;;;;4861916;29;20489;-55
2022/08/30 00:33:00;;;;;;;3.53;2.30;;;14.50;99.90;;;;;;4861734;29;20473;-54
2022/08/30 00:35:26;;;;;;;1.87;1.70;;;14.50;99.90;;;;;;4861610;29;20476;-54
2022/08/30 00:37:52;;;;;;;2.37;1.60;;;14.50;99.90;;;;;;4861763;29;20211;-55
2022/08/30 00:40:19;;;;;;;2.60;1.60;;;14.50;99.90;;;;;;4861770;29;20414;-54
2022/08/30 00:42:46;;;;;;;3.20;1.80;;;14.50;99.90;;;;;;4861827;29;20194;-55
2022/08/30 00:45:24;;;;;;;2.00;1.80;;;14.60;99.90;;;;;;4861822;29;20881;-55
2022/08/30 00:47:49;;;;;;;4.40;1.80;;;14.60;99.90;;;;;;4861769;29;20904;-55
2022/08/30 00:50:19;;;;;;;5.73;1.80;;;14.60;99.90;;;;;;4861185;29;20422;-54
2022/08/30 00:52:48;;;;;;;2.33;2.00;;;14.60;99.90;;;;;;4861768;29;20181;-54
2022/08/30 00:55:15;;;;;;;4.30;1.60;;;14.60;99.90;;;;;;4860987;29;20454;-55
2022/08/30 00:57:43;;;;;;;3.20;1.60;;;14.60;99.90;;;;;;4861651;29;20464;-55
2022/08/30 01:00:11;;;;;;;2.60;1.63;;;14.70;99.90;;;;;;4861871;29;20888;-54
2022/08/30 01:02:36;;;;;;;1.97;1.80;;;14.70;99.90;;;;;;4861542;29;21060;-55
2022/08/30 01:05:04;;;;;;;4.30;1.80;;;14.70;99.90;;;;;;4861478;29;20436;-54
2022/08/30 01:07:29;;;;;;;4.80;1.70;;;14.70;99.90;;;;;;4861646;29;20226;-54
2022/08/30 01:09:55;;;;;;;1.80;1.63;;;14.70;99.90;;;;;;4861397;29;20453;-55
2022/08/30 01:12:22;;;;;;;2.80;1.83;;;14.70;99.90;;;;;;4861914;29;20185;-55
2022/08/30 01:14:48;;;;;;;1.77;1.67;;;14.70;99.90;;;;;;4861367;29;20208;-50
2022/08/30 01:17:15;;;;;;;2.60;1.60;;;14.80;99.90;;;;;;4860928;29;20410;-49
2022/08/30 01:20:00;;;;;;;6.37;2.70;;;14.80;99.90;;;;;;4861482;29;20414;-49
2022/08/30 01:22:49;;;;;;;2.70;1.53;;;14.80;99.90;;;;;;4862568;29;20454;-49
2022/08/30 01:25:29;;;;;;;2.00;1.70;;;14.70;99.90;;;;;;4861219;29;20442;-49
2022/08/30 01:28:03;;;;;;;4.20;1.70;;;14.80;99.90;;;;;;4861229;29;20483;-50
2022/08/30 01:30:30;;;;;;;2.53;1.80;;;14.80;99.90;;;;;;4861178;29;20432;-52
2022/08/30 01:33:02;;;;;;;2.20;1.57;;;14.80;99.90;;;;;;4871600;29;20460;-49
2022/08/30 01:35:36;;;;;;;2.23;1.90;;;14.80;99.90;;;;;;4879888;29;21087;-50
2022/08/30 01:38:02;;;;;;;2.60;1.73;;;14.80;92.10;;;;;;4879738;29;20408;-50
2022/08/30 01:40:28;;;;;;;3.93;1.60;;;14.80;87.00;;;;;;4879552;29;20413;-49
2022/08/30 01:42:54;;;;;;;3.77;1.70;;;14.80;73.20;;;;;;4879528;29;20270;-50
2022/08/30 01:45:20;;;;;;;4.20;1.67;;;14.80;60.10;;;;;;4879321;29;20432;-49
2022/08/30 01:47:45;;;;;;;3.87;1.80;;;14.80;64.50;;;;;;4879589;29;20297;-50
2022/08/30 01:50:11;;;;;;;2.43;2.00;;;14.80;70.10;;;;;;4879469;29;20930;-50
2022/08/30 01:52:37;;;;;;;2.97;1.93;;;14.90;59.00;;;;;;4879014;29;20188;-49
2022/08/30 01:55:04;;;;;;;2.17;1.97;;;14.80;46.50;;;;;;4879229;29;20208;-50
2022/08/30 01:57:30;;;;;;;2.10;1.80;;;14.90;44.90;;;;;;4876102;29;20836;-49
2022/08/30 01:59:55;;;;;;;1.50;1.40;;;14.90;33.00;;;;;;4877569;29;20486;-50
2022/08/30 02:02:25;;;;;;;154.13;94.03;;;14.80;33.50;;;;;;4875277;29;20264;-50
2022/08/30 02:04:52;;;;;;;6.13;4.90;;;14.80;22.80;;;;;;4878470;29;20240;-50
2022/08/30 02:07:18;;;;;;;2.93;2.40;;;14.90;27.90;;;;;;4878594;29;20455;-49
2022/08/30 02:09:44;;;;;;;11.60;6.90;;;14.80;23.80;;;;;;4890892;29;20444;-49
2022/08/30 02:12:09;;;;;;;3.90;3.00;;;14.80;35.30;;;;;;4897794;29;20884;-49
2022/08/30 02:14:36;;;;;;;4.30;3.13;;;14.80;33.60;;;;;;4897478;29;20208;-51
2022/08/30 02:17:04;;;;;;;2.60;2.03;;;14.80;15.50;;;;;;4897292;29;20191;-50
2022/08/30 02:19:29;;;;;;;1.80;1.70;;;14.80;10.50;;;;;;4897689;29;20412;-49
2022/08/30 02:21:55;;;;;;;3.50;1.83;;;14.80;1.60;;;;;;4885344;29;20473;-49
2022/08/30 02:24:21;;;;;;;3.73;1.90;;;14.80;1.00;;;;;;4878873;29;20651;-49
2022/08/30 02:26:47;;;;;;;6.70;4.50;;;14.80;9.30;;;;;;4882588;29;20239;-49
2022/08/30 02:29:13;;;;;;;6.10;2.53;;;14.80;1.00;;;;;;4879483;29;20647;-50
2022/08/30 02:31:39;;;;;;;7.30;3.90;;;14.80;1.00;;;;;;4878393;29;20927;-49
2022/08/30 02:34:05;;;;;;;6.70;3.63;;;14.80;1.00;;;;;;4861631;29;20472;-50
2022/08/30 02:36:31;;;;;;;4.27;1.83;;;14.80;1.00;;;;;;4878644;29;20510;-50
2022/08/30 02:38:56;;;;;;;3.73;1.90;;;14.70;2.00;;;;;;4878817;29;20192;-49
2022/08/30 02:41:22;;;;;;;2.10;1.60;;;14.70;10.10;;;;;;4878229;29;20405;-49
2022/08/30 02:43:50;;;;;;;4.97;2.00;;;14.70;15.50;;;;;;4892681;29;20187;-49
2022/08/30 02:46:16;;;;;;;2.93;1.80;;;14.70;11.40;;;;;;4896797;29;20698;-49
2022/08/30 02:48:43;;;;;;;2.90;1.80;;;14.70;7.60;;;;;;4897249;29;20447;-49
2022/08/30 02:51:11;;;;;;;3.70;1.67;;;14.70;13.10;;;;;;4897034;29;20424;-49
2022/08/30 02:53:39;;;;;;;2.10;1.80;;;14.70;14.10;;;;;;4896209;29;20499;-50
2022/08/30 02:56:05;;;;;;;1.87;1.77;;;14.70;16.00;;;;;;4874301;29;21106;-51
2022/08/30 02:58:31;;;;;;;3.20;1.40;;;14.70;21.40;;;;;;4874811;29;20509;-49
2022/08/30 03:00:56;;;;;;;3.33;1.80;;;14.70;30.50;;;;;;4860641;29;20453;-49
2022/08/30 03:03:22;;;;;;;2.60;1.70;;;14.70;45.00;;;;;;4878385;29;20188;-49
2022/08/30 03:05:47;;;;;;;2.13;1.63;;;14.70;64.20;;;;;;4876790;29;20247;-50
2022/08/30 03:08:13;;;;;;;2.03;1.60;;;14.70;75.30;;;;;;4861368;29;20279;-49
2022/08/30 03:10:39;;;;;;;2.53;1.80;;;14.70;74.70;;;;;;4876459;29;20192;-50
2022/08/30 03:13:06;;;;;;;4.03;1.73;;;14.70;72.00;;;;;;4878369;29;20232;-49
2022/08/30 03:15:34;;;;;;;2.47;1.60;;;14.70;64.50;;;;;;4877108;29;20223;-50
2022/08/30 03:18:00;;;;;;;1.93;1.47;;;14.70;68.30;;;;;;4877624;29;20512;-50
2022/08/30 03:20:25;;;;;;;2.20;1.93;;;14.70;71.70;;;;;;4877453;29;20515;-49
2022/08/30 03:22:51;;;;;;;1.73;1.63;;;14.70;75.20;;;;;;4877801;29;20488;-49
2022/08/30 03:25:19;;;;;;;1.50;1.40;;;14.70;91.10;;;;;;4877448;29;20207;-49
2022/08/30 03:27:45;;;;;;;2.30;1.43;;;14.70;95.00;;;;;;4877767;29;20259;-49
2022/08/30 03:30:11;;;;;;;2.80;1.77;;;14.70;94.80;;;;;;4877791;29;20852;-50
2022/08/30 03:32:38;;;;;;;3.27;2.03;;;14.70;97.60;;;;;;4875536;29;20198;-51
2022/08/30 03:35:04;;;;;;;2.60;2.03;;;14.70;99.90;;;;;;4875329;29;20529;-49
2022/08/30 03:37:30;;;;;;;1.93;1.70;;;14.70;99.90;;;;;;4877661;29;20512;-49
2022/08/30 03:39:56;;;;;;;1.60;1.50;;;14.70;99.90;;;;;;4877199;29;20873;-49
2022/08/30 03:42:22;;;;;;;3.63;1.83;;;14.60;99.90;;;;;;4877885;29;20225;-49
2022/08/30 03:44:47;;;;;;;2.30;1.97;;;14.60;99.90;;;;;;4875817;29;20923;-49
2022/08/30 03:47:13;;;;;;;2.17;1.90;;;14.60;99.90;;;;;;4877832;29;20184;-49
2022/08/30 03:49:39;;;;;;;1.80;1.70;;;14.50;99.90;;;;;;4875016;29;20192;-49
2022/08/30 03:52:05;;;;;;;4.50;2.07;;;14.50;1.00;;;;;;4876432;29;20278;-49
2022/08/30 03:54:31;;;;;;;3.60;2.03;;;14.50;1.00;;;;;;4876913;29;20252;-49
2022/08/30 03:56:56;;;;;;;4.17;2.00;;;14.50;47.60;;;;;;4877212;29;20397;-49
2022/08/30 03:59:23;;;;;;;3.10;1.87;;;14.50;99.90;;;;;;4876856;29;20224;-49
2022/08/30 04:01:48;;;;;;;2.33;2.03;;;14.50;99.90;;;;;;4877782;29;20533;-49
2022/08/30 04:04:14;;;;;;;2.57;1.83;;;14.50;1.00;;;;;;4876229;29;20461;-48
2022/08/30 04:06:40;;;;;;;3.07;2.30;;;14.40;1.00;;;;;;4877748;29;20169;-49
2022/08/30 04:09:06;;;;;;;4.00;2.00;;;14.40;7.00;;;;;;4876608;29;20452;-49
2022/08/30 04:11:32;;;;;;;3.37;2.10;;;14.40;1.00;;;;;;4877466;29;20184;-54
2022/08/30 04:13:57;;;;;;;2.30;2.10;;;14.40;1.00;;;;;;4876125;29;20473;-54
2022/08/30 04:16:24;;;;;;;2.00;1.80;;;14.40;49.20;;;;;;4877557;29;20220;-54
2022/08/30 04:18:49;;;;;;;2.00;1.70;;;14.40;99.90;;;;;;4876019;29;20185;-55
2022/08/30 04:21:15;;;;;;;2.53;2.20;;;14.40;99.90;;;;;;4877290;29;20419;-54
2022/08/30 04:23:42;;;;;;;3.50;2.20;;;14.30;99.90;;;;;;4876781;29;20316;-54
2022/08/30 04:26:08;;;;;;;2.17;1.97;;;14.30;63.30;;;;;;4876927;29;20196;-55
2022/08/30 04:28:34;;;;;;;4.40;2.13;;;14.30;35.50;;;;;;4895198;29;20482;-55
2022/08/30 04:31:10;;;;;;;2.20;2.00;;;14.30;99.90;;;;;;4879763;29;20848;-54
2022/08/30 04:33:36;;;;;;;4.03;2.60;;;14.30;1.00;;;;;;4880776;29;20464;-54
2022/08/30 04:36:04;;;;;;;2.80;2.17;;;14.30;99.90;;;;;;4895350;29;20909;-54
2022/08/30 04:38:31;;;;;;;3.43;1.97;;;14.30;99.90;;;;;;4899276;29;20408;-54
2022/08/30 04:40:57;;;;;;;9.53;2.07;;;14.30;99.90;;;;;;4897070;29;20455;-54
2022/08/30 04:43:25;;;;;;;5.13;2.07;;;14.30;99.90;;;;;;4899239;29;20439;-54
2022/08/30 04:45:52;;;;;;;2.70;2.00;;;14.30;99.90;;;;;;4896124;29;20187;-54
2022/08/30 04:48:18;;;;;;;2.97;1.97;;;14.30;99.90;;;;;;4896976;29;20483;-54
2022/08/30 04:50:43;;;;;;;3.17;2.20;;;14.30;99.90;;;;;;4896627;29;20455;-54
2022/08/30 04:53:09;;;;;;;4.33;2.40;;;14.30;99.90;;;;;;4894788;29;20480;-54
2022/08/30 04:55:35;;;;;;;2.20;2.00;;;14.40;99.90;;;;;;4897190;29;20223;-54
2022/08/30 04:58:01;;;;;;;6.63;2.20;;;14.40;99.90;;;;;;4895351;29;20192;-55
2022/08/30 05:00:26;;;;;;;2.50;2.30;;;14.30;99.90;;;;;;4899231;29;20206;-55
2022/08/30 05:02:52;;;;;;;4.70;2.00;;;14.40;99.90;;;;;;4898960;29;20188;-54
2022/08/30 05:08:03;;;;;;;2.73;1.93;;;14.40;99.90;;;;;;4880516;29;20195;-55
2022/08/30 05:10:28;;;;;;;2.30;2.10;;;14.40;99.90;;;;;;4897642;29;20436;-55
2022/08/30 05:12:54;;;;;;;2.30;1.90;;;14.50;99.90;;;;;;4902828;29;20774;-55
2022/08/30 05:15:21;;;;;;;3.43;2.43;;;14.50;99.90;;;;;;4897929;29;20274;-55
2022/08/30 05:17:47;;;;;;;2.70;2.23;;;14.50;99.90;;;;;;4903376;29;20156;-55
2022/08/30 05:20:13;;;;;;;2.63;2.00;;;14.50;99.90;;;;;;4880898;29;20914;-56
2022/08/30 05:22:48;;;;;;;2.50;2.30;;;14.60;99.90;;;;;;4880382;29;20421;-55
2022/08/30 05:25:17;;;;;;;3.47;2.40;;;14.70;99.90;;;;;;4892703;29;20456;-55
2022/08/30 05:27:43;;;;;;;4.33;2.30;;;14.70;1.00;;;;;;4895727;29;20548;-55
2022/08/30 05:30:09;;;;;;;2.77;2.47;;;14.70;1.00;;;;;;4897306;29;20546;-55
2022/08/30 05:32:35;;;;;;;2.30;2.03;;;14.80;1.00;;;;;;4898469;29;20599;-54
2022/08/30 05:35:00;;;;;;;2.70;2.10;;;14.80;1.00;;;;;;4897816;29;20579;-55
2022/08/30 05:37:26;;;;;;;4.93;2.50;;;14.80;99.90;;;;;;4898897;29;20175;-55
2022/08/30 05:39:52;;;;;;;5.00;2.27;;;14.80;99.90;;;;;;4897236;29;20198;-56
2022/08/30 05:42:18;;;;;;;2.70;2.10;;;14.90;99.90;;;;;;4898154;29;20424;-56
2022/08/30 05:44:44;;;;;;;4.17;2.30;;;14.90;99.90;;;;;;4898101;29;20199;-55
2022/08/30 05:47:09;;;;;;;5.40;2.37;;;15.00;94.70;;;;;;4898409;29;20424;-55
2022/08/30 05:49:35;;;;;;;3.17;2.00;;;15.00;1.00;;;;;;4886740;29;20195;-55
2022/08/30 05:52:02;;;;;;;3.60;2.20;;;15.00;1.00;;;;;;4895184;29;20238;-54
2022/08/30 05:54:28;;;;;;;5.83;2.27;;;15.00;1.00;;;;;;4897359;29;20222;-55
2022/08/30 05:56:53;;;;;;;3.03;2.27;;;15.10;1.00;;;;;;4897941;29;20770;-54
2022/08/30 05:59:19;;;;;;;3.77;2.40;;;15.10;1.00;;;;;;4897719;29;20192;-55
2022/08/30 06:01:45;;;;;;;5.90;2.47;;;15.20;1.00;;;;;;4898057;29;20205;-55
2022/08/30 06:04:12;;;;;;;4.77;2.47;;;15.30;1.00;;;;;;4896203;29;20198;-54
2022/08/30 06:06:41;;;;;;;3.77;2.53;;;15.40;1.00;;;;;;4897870;29;20410;-55
2022/08/30 06:09:08;;;;;;;2.50;2.10;;;15.50;99.90;;;;;;4896945;29;20439;-56
2022/08/30 06:11:35;;;;;;;2.93;1.80;;;15.60;99.90;;;;;;4897704;29;20428;-55
2022/08/30 06:14:01;;;;;;;7.30;2.37;;;15.80;99.90;;;;;;4897175;29;20566;-55
2022/08/30 06:16:27;;;;;;;4.53;1.77;;;15.90;99.90;;;;;;4895837;29;20443;-56
2022/08/30 06:18:55;;;;;;;6.03;2.17;;;16.10;99.90;;;;;;4892945;29;20490;-55
2022/08/30 06:21:27;;;;;;;2.60;1.87;;;16.20;99.90;;;;;;4897741;29;21107;-56
2022/08/30 06:23:53;;;;;;;2.07;1.90;;;16.40;95.70;;;;;;4895892;29;21280;-55
2022/08/30 06:26:19;;;;;;;3.77;2.00;;;16.50;20.40;;;;;;4886646;29;20453;-56
2022/08/30 06:28:45;;;;;;;2.00;1.80;;;16.70;1.00;;;;;;4863522;29;20461;-55
2022/08/30 06:31:13;;;;;;;2.50;2.10;;;16.80;1.00;;;;;;4878392;29;20225;-55
2022/08/30 06:33:39;;;;;;;4.10;2.03;;;17.00;1.00;;;;;;4877940;29;20503;-53
2022/08/30 06:36:07;;;;;;;4.83;2.57;;;17.20;1.00;;;;;;4878335;29;20452;-55
2022/08/30 06:38:34;;;;;;;6.97;1.83;;;17.50;1.00;;;;;;4877173;29;20522;-56
2022/08/30 06:40:59;;;;;;;3.17;1.80;;;17.80;1.00;;;;;;4878603;29;20448;-50
2022/08/30 06:43:25;;;;;;;2.70;1.47;;;17.90;1.00;;;;;;4877869;29;20413;-50
2022/08/30 06:45:51;;;;;;;3.07;1.80;;;18.00;1.00;;;;;;4877831;29;20193;-50
2022/08/30 06:48:16;;;;;;;4.33;1.90;;;17.90;1.00;;;;;;4876254;29;20555;-50
2022/08/30 06:50:43;;;;;;;2.17;1.97;;;17.90;1.00;;;;;;4876881;29;20646;-50
2022/08/30 06:53:09;;;;;;;4.67;2.07;;;17.80;1.00;;;;;;4859918;29;20196;-50
2022/08/30 06:55:34;;;;;;;3.33;1.90;;;17.80;1.00;;;;;;4877909;29;20489;-50
2022/08/30 06:58:01;;;;;;;11.37;2.33;;;17.80;1.00;;;;;;4876787;29;20247;-50
2022/08/30 07:00:27;;;;;;;2.50;1.77;;;17.80;1.00;;;;;;4876864;29;20200;-50
2022/08/30 07:02:53;;;;;;;2.10;1.70;;;17.80;1.00;;;;;;4876600;29;20516;-50
2022/08/30 07:05:23;;;;;;;4.20;1.80;;;17.70;1.00;;;;;;4878093;29;20425;-50
2022/08/30 07:07:52;;;;;;;3.67;1.97;;;17.70;1.00;;;;;;4876556;29;20460;-50
2022/08/30 07:10:18;;;;;;;4.30;2.33;;;17.70;1.00;;;;;;4877184;29;20532;-50
2022/08/30 07:12:43;;;;;;;2.17;1.80;;;17.70;1.00;;;;;;4876595;29;20456;-51
2022/08/30 07:15:10;;;;;;;1.97;1.80;;;17.70;1.00;;;;;;4877622;29;20519;-51
2022/08/30 07:20:20;;;;;;;3.73;1.77;;;17.90;1.00;;;;;;4877623;29;20428;-51
2022/08/30 07:22:47;;;;;;;2.20;1.43;;;18.00;1.00;;;;;;4876720;29;20444;-50
2022/08/30 07:25:14;;;;;;;3.07;1.60;;;18.10;1.00;;;;;;4877635;29;20424;-50
2022/08/30 07:27:40;;;;;;;7.67;1.70;;;18.40;1.00;;;;;;4885380;29;20491;-51
2022/08/30 07:30:07;;;;;;;2.97;1.67;;;18.60;1.00;;;;;;4883551;29;20459;-51
2022/08/30 07:32:32;;;;;;;2.03;1.83;;;18.80;1.00;;;;;;4879609;29;20451;-50
2022/08/30 07:34:58;;;;;;;2.00;1.90;;;19.00;1.00;;;;;;4896118;29;20853;-50
2022/08/30 07:37:24;;;;;;;4.90;2.03;;;19.20;1.00;;;;;;4893453;29;20274;-50
2022/08/30 07:39:49;;;;;;;4.80;1.60;;;19.20;1.00;;;;;;4896233;29;20871;-50
2022/08/30 07:42:16;;;;;;;4.97;1.60;;;19.20;1.00;;;;;;4888815;29;20192;-50
2022/08/30 07:44:42;;;;;;;1.70;1.60;;;19.30;1.00;;;;;;4877367;29;20221;-50
2022/08/30 07:47:08;;;;;;;3.63;1.67;;;19.40;1.00;;;;;;4880131;29;20451;-51
2022/08/30 07:49:35;;;;;;;2.20;1.67;;;19.40;1.00;;;;;;4893993;29;20558;-50
2022/08/30 07:52:01;;;;;;;5.07;1.80;;;19.40;1.00;;;;;;4891689;29;20460;-50
2022/08/30 07:54:26;;;;;;;5.53;1.63;;;19.50;1.00;;;;;;4895810;29;20459;-51
2022/08/30 07:56:54;;;;;;;4.63;2.10;;;19.50;1.00;;;;;;4892988;29;20280;-50
2022/08/30 07:59:22;;;;;;;3.90;2.03;;;19.60;1.00;;;;;;4896062;29;20275;-50
2022/08/30 08:01:48;;;;;;;2.60;1.60;;;19.70;1.00;;;;;;4893151;29;20871;-51
2022/08/30 08:04:14;;;;;;;3.03;1.90;;;19.70;1.00;;;;;;4861247;29;20877;-50
2022/08/30 08:06:40;;;;;;;2.00;1.40;;;19.70;1.00;;;;;;4863204;29;20575;-51
2022/08/30 08:09:06;;;;;;;2.50;1.90;;;19.60;1.00;;;;;;4880632;29;20203;-51
2022/08/30 08:11:33;;;;;;;4.20;1.80;;;19.70;1.00;;;;;;4880096;29;20191;-51
2022/08/30 08:13:59;;;;;;;3.07;1.93;;;19.80;1.00;;;;;;4899198;29;20997;-50
2022/08/30 08:16:27;;;;;;;1.60;1.50;;;19.80;1.00;;;;;;4898379;29;20902;-50
2022/08/30 08:18:54;;;;;;;5.07;2.20;;;19.80;1.00;;;;;;4898966;29;20531;-51
2022/08/30 08:21:21;;;;;;;4.10;1.60;;;19.80;1.00;;;;;;4899341;29;20416;-50
2022/08/30 08:23:46;;;;;;;1.60;1.50;;;19.80;1.00;;;;;;4896544;29;20535;-50
2022/08/30 08:26:12;;;;;;;11.07;1.93;;;19.80;99.90;;;;;;4899435;29;20929;-50
2022/08/30 08:28:38;;;;;;;3.23;1.47;;;19.80;99.90;;;;;;4886828;29;20282;-50
2022/08/30 08:31:17;;;;;;;4.70;1.90;;;19.80;99.90;;;;;;4895541;29;20488;-51
2022/08/30 08:33:43;;;;;;;1.40;1.30;;;19.90;1.00;;;;;;4897037;29;20587;-51
2022/08/30 08:36:08;;;;;;;2.00;1.30;;;20.00;99.90;;;;;;4899252;29;20424;-50
2022/08/30 08:38:35;;;;;;;1.57;1.37;;;20.00;99.90;;;;;;4897256;29;20200;-50
2022/08/30 08:41:31;;;;;;;6.73;1.60;;;20.10;99.90;;;;;;4899339;29;20176;-50
2022/08/30 08:43:57;;;;;;;9.30;1.57;;;20.40;99.90;;;;;;4886427;29;20458;-51
2022/08/30 08:46:56;;;;;;;2.13;1.43;;;20.50;99.90;;;;;;4860615;29;20441;-51
2022/08/30 08:49:21;;;;;;;4.50;1.40;;;20.60;99.90;;;;;;4856275;29;20772;-51
2022/08/30 08:54:41;;;;;;;7.23;4.50;;;20.80;99.90;;;;;;4898653;29;20612;-50
2022/08/30 08:57:08;;;;;;;1.67;1.20;;;21.00;99.90;;;;;;4890763;29;20444;-52
2022/08/30 08:59:33;;;;;;;2.40;1.30;;;21.20;99.90;;;;;;4873534;29;20453;-51
2022/08/30 09:02:08;;;;;;;1.83;1.10;;;21.40;99.90;;;;;;4873744;29;20452;-50
2022/08/30 09:04:37;;;;;;;2.30;1.00;;;21.50;99.90;;;;;;4870352;29;20188;-51
2022/08/30 09:07:16;;;;;;;3.20;1.23;;;21.50;99.90;;;;;;4871109;29;20877;-51
2022/08/30 09:09:42;;;;;;;6.67;1.37;;;21.50;99.90;;;;;;4869753;29;20835;-51
2022/08/30 09:12:10;;;;;;;1.70;1.07;;;21.60;99.90;;;;;;4870827;29;22118;-51
2022/08/30 09:14:42;;;;;;;2.00;1.00;;;21.50;99.90;;;;;;4869114;29;20598;-51
2022/08/30 09:17:10;;;;;;;1.67;1.40;;;21.40;99.90;;;;;;4871116;29;21143;-51
2022/08/30 09:19:53;;;;;;;1.47;1.27;;;21.30;99.90;;;;;;4872512;29;20437;-51
2022/08/30 09:22:37;;;;;;;1.67;1.20;;;21.30;99.90;;;;;;4879611;29;20412;-51
2022/08/30 09:25:12;;;;;;;1.57;1.30;;;21.20;99.90;;;;;;4881248;29;20441;-51
2022/08/30 09:27:44;;;;;;;4.50;1.20;;;21.10;99.90;;;;;;4879983;29;20480;-50
2022/08/30 09:30:18;;;;;;;2.90;1.27;;;21.00;99.90;;;;;;4879545;29;20424;-51
2022/08/30 09:32:57;;;;;;;6.17;1.03;;;21.00;99.90;;;;;;4879659;29;20520;-51
2022/08/30 09:35:34;;;;;;;4.23;1.47;;;21.00;99.90;;;;;;4877947;29;20540;-51
2022/08/30 09:38:06;;;;;;;1.67;1.10;;;21.10;99.90;;;;;;4873584;29;20444;-50
2022/08/30 09:40:48;;;;;;;1.70;1.30;;;21.20;99.90;;;;;;4879499;29;20494;-50
2022/08/30 09:43:16;;;;;;;6.33;1.20;;;21.40;99.90;;;;;;4891264;29;20559;-50
2022/08/30 09:45:47;;;;;;;5.87;1.60;;;21.40;99.90;;;;;;4897879;29;20903;-51
2022/08/30 09:48:39;;;;;;;2.80;1.10;;;21.50;99.90;;;;;;4870355;29;20452;-50
2022/08/30 09:51:11;;;;;;;2.07;1.20;;;21.60;99.90;;;;;;4872822;29;21329;-50
2022/08/30 09:53:51;;;;;;;1.80;1.20;;;21.50;99.90;;;;;;4860365;29;20999;-51
2022/08/30 09:56:30;;;;;;;5.73;1.90;;;21.50;99.90;;;;;;4860610;29;20425;-51
2022/08/30 09:59:26;;;;;;;1.90;1.20;;;21.60;99.90;;;;;;4860400;29;20438;-51
2022/08/30 10:02:15;;;;;;;3.70;1.40;;;21.50;99.90;;;;;;4860367;29;20422;-50
2022/08/30 10:05:08;;;;;;;2.90;1.37;;;21.70;99.90;;;;;;4866775;29;20424;-51
2022/08/30 10:07:58;;;;;;;1.60;1.47;;;21.70;99.90;;;;;;4878532;29;20409;-51
2022/08/30 10:10:52;;;;;;;1.13;1.10;;;21.80;99.90;;;;;;4868873;29;20451;-50
2022/08/30 10:13:30;;;;;;;3.17;1.50;;;21.90;99.90;;;;;;4882071;29;20441;-51
2022/08/30 10:16:14;;;;;;;2.50;1.50;;;21.70;99.90;;;;;;4875770;29;20561;-53
2022/08/30 10:18:59;;;;;;;2.73;1.30;;;21.70;99.90;;;;;;4874912;29;20436;-51
2022/08/30 10:21:32;;;;;;;4.37;1.70;;;21.60;99.90;;;;;;4859740;29;20803;-51
2022/08/30 10:24:01;;;;;;;1.80;1.20;;;21.60;99.90;;;;;;4878406;29;20402;-54
2022/08/30 10:26:52;;;;;;;2.97;1.60;;;21.50;99.90;;;;;;4877607;29;20429;-51
2022/08/30 10:29:41;;;;;;;2.73;1.33;;;21.40;99.90;;;;;;4878570;29;20409;-51
2022/08/30 10:32:14;;;;;;;4.73;1.33;;;21.40;99.90;;;;;;4868121;29;20433;-50
2022/08/30 10:35:03;;;;;;;3.10;1.70;;;21.40;99.90;;;;;;4878240;29;20527;-52
2022/08/30 10:37:33;;;;;;;1.87;1.70;;;21.40;99.90;;;;;;4867811;29;20503;-50
2022/08/30 10:41:11;;;;;;;2.27;1.50;;;21.40;99.90;;;;;;4861995;29;20431;-51
2022/08/30 10:42:52;;;;;;;1.37;1.27;;;21.50;99.90;;;;;;4877986;29;20448;-51
2022/08/30 10:45:19;;;;;;;1.80;1.47;;;21.60;99.90;;;;;;4876326;29;20435;-51
2022/08/30 10:47:59;;;;;;;3.80;1.73;;;21.70;99.90;;;;;;4859679;29;20434;-51
2022/08/30 10:50:30;;;;;;;4.63;1.67;;;21.90;99.90;;;;;;4860007;29;20512;-51
2022/08/30 10:53:11;;;;;;;8.33;2.00;;;21.90;99.90;;;;;;4878095;29;20425;-51
2022/08/30 10:55:46;;;;;;;2.67;1.70;;;22.00;99.90;;;;;;4876740;29;20532;-50
2022/08/30 10:58:14;;;;;;;1.60;1.50;;;22.10;99.90;;;;;;4877870;29;20416;-51
2022/08/30 11:01:07;;;;;;;2.10;1.90;;;22.20;99.90;;;;;;4877675;29;20868;-51
2022/08/30 11:04:17;;;;;;;2.00;1.80;;;22.20;99.90;;;;;;4877854;29;20417;-51
2022/08/30 11:06:46;;;;;;;1.77;1.47;;;23.10;99.90;;;;;;4858579;29;20441;-51
2022/08/30 11:09:26;;;;;;;1.43;1.33;;;24.40;99.90;;;;;;4877843;29;20427;-51
2022/08/30 11:12:04;;;;;;;2.13;1.43;;;24.80;99.90;;;;;;4877673;29;20416;-51
2022/08/30 11:14:29;;;;;;;2.70;1.70;;;24.40;99.90;;;;;;4877707;29;20456;-52
2022/08/30 11:16:58;;;;;;;2.43;1.50;;;24.00;99.90;;;;;;4877905;29;20443;-51
2022/08/30 11:19:42;;;;;;;2.77;1.20;;;23.50;99.90;;;;;;4877732;29;20184;-52
2022/08/30 11:22:32;;;;;;;5.33;1.43;;;23.10;99.90;;;;;;4877788;29;20417;-51
2022/08/30 11:25:05;;;;;;;4.50;1.90;;;22.60;99.90;;;;;;4877899;29;20461;-51
2022/08/30 11:27:52;;;;;;;4.00;1.67;;;22.30;99.90;;;;;;4877310;29;20476;-51
2022/08/30 11:30:40;;;;;;;16.73;1.70;;;22.00;99.90;;;;;;4877717;29;20433;-51
2022/08/30 11:33:09;;;;;;;11.00;2.00;;;21.90;99.90;;;;;;4867608;29;20524;-51
2022/08/30 11:35:42;;;;;;;2.33;1.20;;;21.70;99.90;;;;;;4877751;29;20488;-51
2022/08/30 11:38:31;;;;;;;3.23;1.70;;;21.70;99.90;;;;;;4879493;29;20405;-51
2022/08/30 11:40:57;;;;;;;7.53;1.97;;;21.60;99.90;;;;;;4848729;29;20436;-51
2022/08/30 11:43:37;;;;;;;5.33;1.53;;;21.70;99.90;;;;;;4883522;29;20448;-51
2022/08/30 11:46:23;;;;;;;12.20;2.10;;;21.70;99.90;;;;;;4883545;29;20421;-51
2022/08/30 11:48:59;;;;;;;3.73;1.80;;;21.60;99.90;;;;;;4883130;29;20441;-51
2022/08/30 11:51:34;;;;;;;7.20;1.60;;;21.50;99.90;;;;;;4883390;29;20456;-51
2022/08/30 11:54:09;;;;;;;6.40;1.90;;;21.50;99.90;;;;;;4883901;29;21024;-51
2022/08/30 11:57:19;;;;;;;6.57;1.80;;;21.40;99.90;;;;;;4883897;29;20514;-51
2022/08/30 12:00:07;;;;;;;5.10;1.40;;;21.50;99.90;;;;;;4864830;29;20471;-51
2022/08/30 12:02:42;;;;;;;2.23;1.43;;;21.60;99.90;;;;;;4883703;29;20420;-51
2022/08/30 12:05:28;;;;;;;2.57;1.57;;;21.50;99.90;;;;;;4883910;29;21110;-51
2022/08/30 12:07:59;;;;;;;4.53;1.20;;;21.60;99.90;;;;;;4883665;29;20447;-51
2022/08/30 12:10:39;;;;;;;2.90;1.20;;;21.80;99.90;;;;;;4886408;29;20526;-52
2022/08/30 12:13:06;;;;;;;1.73;1.50;;;22.00;99.90;;;;;;4883593;29;20416;-52
2022/08/30 12:15:59;;;;;;;1.73;1.50;;;22.10;99.90;;;;;;4883929;29;20821;-52
2022/08/30 12:18:32;;;;;;;4.83;1.33;;;22.40;99.90;;;;;;4883452;29;20739;-52
2022/08/30 12:21:12;;;;;;;4.07;1.20;;;22.70;99.90;;;;;;4867715;29;20492;-52
2022/08/30 12:23:47;;;;;;;3.53;1.50;;;23.30;99.90;;;;;;4883489;29;20748;-52
2022/08/30 12:26:24;;;;;;;1.60;1.50;;;24.40;99.90;;;;;;4883121;29;20424;-52
2022/08/30 12:29:03;;;;;;;3.27;1.47;;;25.20;99.90;;;;;;4883193;29;20840;-52
2022/08/30 12:31:30;;;;;;;4.07;1.50;;;25.90;99.90;;;;;;4883423;29;20393;-52
2022/08/30 12:33:58;;;;;;;5.07;1.40;;;26.20;99.90;;;;;;4883047;29;20547;-52
2022/08/30 12:36:34;;;;;;;3.23;1.40;;;26.40;99.90;;;;;;4883095;29;20425;-52
2022/08/30 12:39:15;;;;;;;2.00;1.10;;;26.10;99.90;;;;;;4883258;29;20499;-52
2022/08/30 12:41:43;;;;;;;5.60;1.40;;;25.90;99.90;;;;;;4883038;29;20513;-52
2022/08/30 12:44:16;;;;;;;3.03;1.43;;;25.20;99.90;;;;;;4883012;29;20531;-52
2022/08/30 12:46:45;;;;;;;1.20;1.10;;;24.90;99.90;;;;;;4882991;29;20421;-52
2022/08/30 12:49:17;;;;;;;1.10;1.00;;;24.90;99.90;;;;;;4881649;29;20428;-52
2022/08/30 12:51:43;;;;;;;1.70;1.30;;;24.60;99.90;;;;;;4876769;29;20448;-52
2022/08/30 12:54:17;;;;;;;2.40;1.40;;;24.10;99.90;;;;;;4879038;29;20476;-52
2022/08/30 12:57:01;;;;;;;9.93;1.90;;;24.10;99.90;;;;;;4880319;29;20915;-52
2022/08/30 12:59:41;;;;;;;3.03;1.60;;;24.70;99.90;;;;;;4880186;29;20755;-57
2022/08/30 13:02:19;;;;;;;4.73;1.40;;;25.60;99.90;;;;;;4880201;29;20409;-57
2022/08/30 13:04:48;;;;;;;2.73;1.20;;;25.80;99.90;;;;;;4879962;29;20548;-57
2022/08/30 13:07:26;;;;;;;3.20;1.33;;;26.60;99.90;;;;;;4879772;29;20424;-57
2022/08/30 13:10:04;;;;;;;1.70;1.40;;;27.40;99.90;;;;;;4879484;29;20947;-56
2022/08/30 13:12:30;;;;;;;2.17;1.10;;;28.30;99.90;;;;;;4879989;29;20501;-57